DLH8JT ESSA-EDDF
Flight info
| Callsign | DLH8JT |
|---|---|
| Flight time | 1h 55m |
| Altitude | 38000 |
| Route | NOSLI N850 ABAMA DCT SONAL DCT POVEL DCT RIMET/N0406F310 T157 KOKEB/N0355F230 T157 KERAX KERAX5A |
| Aircraft | A320/M-SDE2E3FGIJ1LORWXYZ/HB1 |
Departure
| Time | 2026-05-05 13:29 |
|---|---|
| Airport | Stockholm-Arlanda Airport (ESSA) |
Arrival
| Time | 2026-05-05 15:24 |
|---|---|
| Airport | Frankfurt Main Airport (EDDF) |
| Time | Latitude | Longitude | Altitude | Speed | Heading |
|---|---|---|---|---|---|
| 2026-05-05 12:55 | 59.65463 | 17.93748 | 138 ft | 0 kts | 255° |
| 2026-05-05 13:04 | 59.65463 | 17.93749 | 138 ft | 0 kts | 255° |
| 2026-05-05 13:19 | 59.65468 | 17.93779 | 138 ft | 4 kts | 234° |
| 2026-05-05 13:20 | 59.65487 | 17.93808 | 138 ft | 4 kts | 227° |
| 2026-05-05 13:20 | 59.65495 | 17.93841 | 138 ft | 4 kts | 250° |
| 2026-05-05 13:20 | 59.65503 | 17.93884 | 138 ft | 4 kts | 281° |
| 2026-05-05 13:20 | 59.65490 | 17.93906 | 137 ft | 3 kts | 345° |
| 2026-05-05 13:21 | 59.65474 | 17.93914 | 137 ft | 4 kts | 345° |
| 2026-05-05 13:21 | 59.65464 | 17.93919 | 137 ft | 0 kts | 345° |
| 2026-05-05 13:24 | 59.65489 | 17.93906 | 138 ft | 7 kts | 344° |
| 2026-05-05 13:24 | 59.65560 | 17.93859 | 138 ft | 14 kts | 330° |
| 2026-05-05 13:24 | 59.65577 | 17.93668 | 138 ft | 16 kts | 257° |
| 2026-05-05 13:24 | 59.65548 | 17.93448 | 138 ft | 17 kts | 256° |
| 2026-05-05 13:25 | 59.65517 | 17.93208 | 138 ft | 19 kts | 256° |
| 2026-05-05 13:25 | 59.65483 | 17.92954 | 138 ft | 20 kts | 252° |
| 2026-05-05 13:25 | 59.65431 | 17.92695 | 138 ft | 20 kts | 261° |
| 2026-05-05 13:25 | 59.65520 | 17.92537 | 138 ft | 17 kts | 340° |
| 2026-05-05 13:26 | 59.65631 | 17.92480 | 138 ft | 17 kts | 346° |
| 2026-05-05 13:26 | 59.65751 | 17.92423 | 138 ft | 18 kts | 358° |
| 2026-05-05 13:26 | 59.65872 | 17.92461 | 138 ft | 18 kts | 8° |
| 2026-05-05 13:26 | 59.65998 | 17.92506 | 138 ft | 20 kts | 9° |
| 2026-05-05 13:27 | 59.66138 | 17.92558 | 138 ft | 21 kts | 11° |
| 2026-05-05 13:27 | 59.66288 | 17.92612 | 138 ft | 23 kts | 9° |
| 2026-05-05 13:27 | 59.66449 | 17.92658 | 138 ft | 24 kts | 354° |
| 2026-05-05 13:27 | 59.66600 | 17.92558 | 139 ft | 18 kts | 329° |
| 2026-05-05 13:28 | 59.66599 | 17.92394 | 141 ft | 13 kts | 231° |
| 2026-05-05 13:28 | 59.66515 | 17.92332 | 142 ft | 13 kts | 191° |
| 2026-05-05 13:28 | 59.66270 | 17.92240 | 144 ft | 72 kts | 191° |
| 2026-05-05 13:28 | 59.65558 | 17.91984 | 144 ft | 135 kts | 190° |
| 2026-05-05 13:29 | 59.64474 | 17.91623 | 252 ft | 170 kts | 196° |
| 2026-05-05 13:29 | 59.63308 | 17.91133 | 943 ft | 173 kts | 197° |
| 2026-05-05 13:29 | 59.62104 | 17.90694 | 1709 ft | 177 kts | 194° |
| 2026-05-05 13:29 | 59.60924 | 17.89916 | 2232 ft | 187 kts | 223° |
| 2026-05-05 13:30 | 59.60077 | 17.87818 | 2593 ft | 207 kts | 243° |
| 2026-05-05 13:30 | 59.59383 | 17.85270 | 3374 ft | 213 kts | 245° |
| 2026-05-05 13:30 | 59.58703 | 17.82647 | 4274 ft | 216 kts | 245° |
| 2026-05-05 13:30 | 59.58028 | 17.79943 | 4941 ft | 231 kts | 247° |
| 2026-05-05 13:31 | 59.57324 | 17.76968 | 5621 ft | 247 kts | 246° |
| 2026-05-05 13:31 | 59.56328 | 17.74126 | 6458 ft | 259 kts | 227° |
| 2026-05-05 13:31 | 59.54840 | 17.72057 | 7362 ft | 266 kts | 210° |
| 2026-05-05 13:31 | 59.53186 | 17.70396 | 8353 ft | 268 kts | 210° |
| 2026-05-05 13:32 | 59.51510 | 17.68744 | 9325 ft | 270 kts | 210° |
| 2026-05-05 13:32 | 59.49813 | 17.67084 | 10175 ft | 277 kts | 210° |
| 2026-05-05 13:32 | 59.48016 | 17.65318 | 10560 ft | 299 kts | 211° |
| 2026-05-05 13:32 | 59.46128 | 17.63462 | 11269 ft | 306 kts | 211° |
| 2026-05-05 13:33 | 59.44217 | 17.61593 | 12167 ft | 307 kts | 212° |
| 2026-05-05 13:33 | 59.42296 | 17.59718 | 13115 ft | 308 kts | 213° |
| 2026-05-05 13:33 | 59.40375 | 17.57845 | 13974 ft | 308 kts | 214° |
| 2026-05-05 13:33 | 59.38454 | 17.55975 | 14766 ft | 308 kts | 214° |
| 2026-05-05 13:34 | 59.36535 | 17.54107 | 15572 ft | 308 kts | 214° |
| 2026-05-05 13:34 | 59.34614 | 17.52237 | 16375 ft | 308 kts | 215° |
| 2026-05-05 13:34 | 59.32691 | 17.50366 | 17173 ft | 309 kts | 215° |
| 2026-05-05 13:34 | 59.30767 | 17.48491 | 17963 ft | 309 kts | 215° |
| 2026-05-05 13:35 | 59.28838 | 17.46615 | 18636 ft | 310 kts | 215° |
| 2026-05-05 13:35 | 59.26888 | 17.44719 | 19106 ft | 316 kts | 215° |
| 2026-05-05 13:35 | 59.24908 | 17.42792 | 19658 ft | 320 kts | 215° |
| 2026-05-05 13:35 | 59.22907 | 17.40848 | 20251 ft | 323 kts | 215° |
| 2026-05-05 13:36 | 59.20914 | 17.38916 | 20812 ft | 326 kts | 214° |
| 2026-05-05 13:36 | 59.18874 | 17.36944 | 21373 ft | 328 kts | 214° |
| 2026-05-05 13:36 | 59.16815 | 17.34955 | 21940 ft | 331 kts | 214° |
| 2026-05-05 13:36 | 59.14742 | 17.32955 | 22498 ft | 334 kts | 214° |
| 2026-05-05 13:37 | 59.12647 | 17.30947 | 23044 ft | 337 kts | 214° |
| 2026-05-05 13:37 | 59.10536 | 17.28929 | 23577 ft | 339 kts | 214° |
| 2026-05-05 13:37 | 59.08409 | 17.26892 | 24030 ft | 341 kts | 215° |
| 2026-05-05 13:37 | 59.06429 | 17.24445 | 24471 ft | 335 kts | 225° |
| 2026-05-05 13:38 | 59.04637 | 17.21542 | 24920 ft | 336 kts | 226° |
| 2026-05-05 13:38 | 59.02792 | 17.18707 | 25300 ft | 343 kts | 219° |
| 2026-05-05 13:38 | 59.00724 | 17.16303 | 25685 ft | 348 kts | 217° |
| 2026-05-05 13:38 | 58.98655 | 17.13955 | 26096 ft | 351 kts | 217° |
| 2026-05-05 13:39 | 58.96536 | 17.11575 | 26518 ft | 353 kts | 217° |
| 2026-05-05 13:39 | 58.94397 | 17.09183 | 26933 ft | 356 kts | 217° |
| 2026-05-05 13:39 | 58.92245 | 17.06779 | 27337 ft | 358 kts | 217° |
| 2026-05-05 13:39 | 58.90081 | 17.04358 | 27755 ft | 360 kts | 217° |
| 2026-05-05 13:40 | 58.87927 | 17.01947 | 28152 ft | 362 kts | 217° |
| 2026-05-05 13:40 | 58.85736 | 16.99498 | 28551 ft | 364 kts | 217° |
| 2026-05-05 13:40 | 58.83533 | 16.97042 | 28939 ft | 367 kts | 217° |
| 2026-05-05 13:40 | 58.81310 | 16.94567 | 29330 ft | 369 kts | 217° |
| 2026-05-05 13:41 | 58.79081 | 16.92084 | 29721 ft | 371 kts | 217° |
| 2026-05-05 13:41 | 58.76836 | 16.89586 | 30018 ft | 374 kts | 217° |
| 2026-05-05 13:41 | 58.74570 | 16.87063 | 30266 ft | 378 kts | 217° |
| 2026-05-05 13:41 | 58.72284 | 16.84526 | 30556 ft | 380 kts | 217° |
| 2026-05-05 13:42 | 58.69983 | 16.81982 | 30854 ft | 382 kts | 217° |
| 2026-05-05 13:42 | 58.67672 | 16.79430 | 31135 ft | 385 kts | 217° |
| 2026-05-05 13:42 | 58.65339 | 16.76858 | 31412 ft | 387 kts | 217° |
| 2026-05-05 13:42 | 58.63005 | 16.74288 | 31785 ft | 386 kts | 217° |
| 2026-05-05 13:43 | 58.60676 | 16.71730 | 32188 ft | 385 kts | 217° |
| 2026-05-05 13:43 | 58.58381 | 16.69217 | 32569 ft | 385 kts | 217° |
| 2026-05-05 13:43 | 58.56057 | 16.66672 | 32967 ft | 384 kts | 217° |
| 2026-05-05 13:43 | 58.53731 | 16.64123 | 33367 ft | 383 kts | 217° |
| 2026-05-05 13:44 | 58.51413 | 16.61585 | 33699 ft | 383 kts | 216° |
| 2026-05-05 13:44 | 58.49092 | 16.59055 | 34030 ft | 383 kts | 216° |
| 2026-05-05 13:44 | 58.46773 | 16.56531 | 34303 ft | 384 kts | 216° |
| 2026-05-05 13:44 | 58.44447 | 16.53994 | 34558 ft | 385 kts | 216° |
| 2026-05-05 13:45 | 58.42115 | 16.51458 | 34795 ft | 387 kts | 216° |
| 2026-05-05 13:45 | 58.39773 | 16.48918 | 35036 ft | 388 kts | 216° |
| 2026-05-05 13:45 | 58.37424 | 16.46375 | 35268 ft | 389 kts | 216° |
| 2026-05-05 13:45 | 58.35096 | 16.43857 | 35494 ft | 390 kts | 216° |
| 2026-05-05 13:46 | 58.32735 | 16.41308 | 35727 ft | 391 kts | 215° |
| 2026-05-05 13:46 | 58.30361 | 16.38754 | 35956 ft | 392 kts | 215° |
| 2026-05-05 13:46 | 58.27977 | 16.36195 | 36183 ft | 393 kts | 215° |
| 2026-05-05 13:46 | 58.25594 | 16.33636 | 36362 ft | 394 kts | 215° |
| 2026-05-05 13:47 | 58.23205 | 16.31066 | 36553 ft | 395 kts | 215° |
| 2026-05-05 13:47 | 58.20808 | 16.28491 | 36772 ft | 396 kts | 215° |
| 2026-05-05 13:47 | 58.18404 | 16.25922 | 36970 ft | 397 kts | 214° |
| 2026-05-05 13:47 | 58.15991 | 16.23355 | 37198 ft | 398 kts | 214° |
| 2026-05-05 13:48 | 58.13575 | 16.20782 | 37410 ft | 399 kts | 214° |
| 2026-05-05 13:48 | 58.11184 | 16.18237 | 37607 ft | 399 kts | 214° |
| 2026-05-05 13:48 | 58.08762 | 16.15667 | 37832 ft | 400 kts | 214° |
| 2026-05-05 13:48 | 58.06331 | 16.13096 | 37894 ft | 400 kts | 214° |
| 2026-05-05 13:49 | 58.01481 | 16.07966 | 37878 ft | 399 kts | 214° |
| 2026-05-05 13:49 | 57.96628 | 16.02825 | 37893 ft | 401 kts | 214° |
| 2026-05-05 13:50 | 57.91757 | 15.97699 | 37893 ft | 401 kts | 214° |
| 2026-05-05 13:50 | 57.86884 | 15.92590 | 37893 ft | 401 kts | 214° |
| 2026-05-05 13:51 | 57.82007 | 15.87493 | 37895 ft | 401 kts | 214° |
| 2026-05-05 13:51 | 57.77124 | 15.82410 | 37893 ft | 401 kts | 214° |
| 2026-05-05 13:52 | 57.72238 | 15.77340 | 37893 ft | 401 kts | 214° |
| 2026-05-05 13:52 | 57.67348 | 15.72274 | 37897 ft | 402 kts | 214° |
| 2026-05-05 13:53 | 57.62490 | 15.67253 | 37896 ft | 402 kts | 214° |
| 2026-05-05 13:53 | 57.57598 | 15.62219 | 37894 ft | 402 kts | 214° |
| 2026-05-05 13:54 | 57.52705 | 15.57199 | 37900 ft | 402 kts | 214° |
| 2026-05-05 13:54 | 57.47803 | 15.52184 | 37876 ft | 402 kts | 214° |
| 2026-05-05 13:55 | 57.42903 | 15.47185 | 37883 ft | 402 kts | 214° |
| 2026-05-05 13:55 | 57.37993 | 15.42191 | 37886 ft | 402 kts | 213° |
| 2026-05-05 13:56 | 57.33072 | 15.37206 | 37890 ft | 402 kts | 213° |
| 2026-05-05 13:56 | 57.28180 | 15.32265 | 37894 ft | 402 kts | 213° |
| 2026-05-05 13:57 | 57.23256 | 15.27311 | 37859 ft | 403 kts | 213° |
| 2026-05-05 13:57 | 57.18329 | 15.22356 | 37868 ft | 403 kts | 213° |
| 2026-05-05 13:58 | 57.13388 | 15.17414 | 37877 ft | 404 kts | 213° |
| 2026-05-05 13:58 | 57.08440 | 15.12475 | 37880 ft | 404 kts | 213° |
| 2026-05-05 13:59 | 57.01048 | 15.05131 | 37854 ft | 404 kts | 213° |
| 2026-05-05 14:00 | 56.94416 | 14.98570 | 37870 ft | 405 kts | 213° |
| 2026-05-05 14:00 | 56.88652 | 14.92877 | 37893 ft | 405 kts | 213° |
| 2026-05-05 14:01 | 56.83692 | 14.88000 | 37894 ft | 405 kts | 213° |
| 2026-05-05 14:01 | 56.78725 | 14.83136 | 37893 ft | 405 kts | 213° |
| 2026-05-05 14:02 | 56.73786 | 14.78318 | 37875 ft | 405 kts | 212° |
| 2026-05-05 14:02 | 56.68800 | 14.73462 | 37888 ft | 405 kts | 212° |
| 2026-05-05 14:03 | 56.63850 | 14.68648 | 37892 ft | 405 kts | 212° |
| 2026-05-05 14:03 | 56.58865 | 14.63817 | 37896 ft | 405 kts | 212° |
| 2026-05-05 14:04 | 56.53886 | 14.59011 | 37911 ft | 406 kts | 212° |
| 2026-05-05 14:04 | 56.48902 | 14.54206 | 37880 ft | 406 kts | 212° |
| 2026-05-05 14:05 | 56.43938 | 14.49438 | 37884 ft | 406 kts | 212° |
| 2026-05-05 14:05 | 56.38938 | 14.44662 | 37888 ft | 406 kts | 212° |
| 2026-05-05 14:06 | 56.33934 | 14.39896 | 37894 ft | 407 kts | 212° |
| 2026-05-05 14:06 | 56.28953 | 14.35164 | 37897 ft | 407 kts | 212° |
| 2026-05-05 14:07 | 56.23944 | 14.30409 | 37872 ft | 407 kts | 212° |
| 2026-05-05 14:07 | 56.18931 | 14.25669 | 37884 ft | 407 kts | 212° |
| 2026-05-05 14:08 | 56.13910 | 14.20941 | 37887 ft | 407 kts | 212° |
| 2026-05-05 14:08 | 56.08884 | 14.16229 | 37885 ft | 408 kts | 212° |
| 2026-05-05 14:09 | 56.03856 | 14.11507 | 37891 ft | 408 kts | 212° |
| 2026-05-05 14:09 | 55.98827 | 14.06812 | 37870 ft | 408 kts | 211° |
| 2026-05-05 14:10 | 55.93826 | 14.02161 | 37885 ft | 408 kts | 211° |
| 2026-05-05 14:10 | 55.88791 | 13.97474 | 37892 ft | 408 kts | 211° |
| 2026-05-05 14:11 | 55.83755 | 13.92811 | 37909 ft | 408 kts | 211° |
| 2026-05-05 14:11 | 55.78718 | 13.88161 | 37889 ft | 408 kts | 211° |
| 2026-05-05 14:12 | 55.73708 | 13.83547 | 37903 ft | 408 kts | 211° |
| 2026-05-05 14:12 | 55.68662 | 13.78925 | 37908 ft | 408 kts | 211° |
| 2026-05-05 14:13 | 55.64470 | 13.75096 | 37910 ft | 407 kts | 211° |
| 2026-05-05 14:13 | 55.59397 | 13.70460 | 37912 ft | 407 kts | 211° |
| 2026-05-05 14:14 | 55.54388 | 13.65898 | 37913 ft | 407 kts | 211° |
| 2026-05-05 14:14 | 55.49337 | 13.61314 | 37901 ft | 408 kts | 211° |
| 2026-05-05 14:15 | 55.44289 | 13.56746 | 37903 ft | 408 kts | 211° |
| 2026-05-05 14:15 | 55.39269 | 13.52217 | 37908 ft | 408 kts | 211° |
| 2026-05-05 14:16 | 55.34216 | 13.47665 | 37913 ft | 408 kts | 211° |
| 2026-05-05 14:16 | 55.29154 | 13.43120 | 37916 ft | 408 kts | 211° |
| 2026-05-05 14:17 | 55.24095 | 13.38589 | 37922 ft | 408 kts | 211° |
| 2026-05-05 14:17 | 55.19038 | 13.34068 | 37922 ft | 408 kts | 211° |
| 2026-05-05 14:18 | 55.13973 | 13.29571 | 37926 ft | 408 kts | 211° |
| 2026-05-05 14:18 | 55.08936 | 13.25118 | 37943 ft | 408 kts | 210° |
| 2026-05-05 14:19 | 55.03865 | 13.20636 | 37923 ft | 408 kts | 211° |
| 2026-05-05 14:19 | 54.98792 | 13.16156 | 37925 ft | 408 kts | 211° |
| 2026-05-05 14:20 | 54.93714 | 13.11673 | 37932 ft | 408 kts | 211° |
| 2026-05-05 14:20 | 54.88676 | 13.07254 | 37936 ft | 408 kts | 210° |
| 2026-05-05 14:21 | 54.83595 | 13.02822 | 37938 ft | 408 kts | 210° |
| 2026-05-05 14:21 | 54.78519 | 12.98392 | 37924 ft | 408 kts | 210° |
| 2026-05-05 14:22 | 54.73446 | 12.93974 | 37936 ft | 408 kts | 210° |
| 2026-05-05 14:22 | 54.68363 | 12.89567 | 37940 ft | 408 kts | 210° |
| 2026-05-05 14:23 | 54.63280 | 12.85165 | 37941 ft | 408 kts | 210° |
| 2026-05-05 14:23 | 54.58202 | 12.80778 | 37920 ft | 408 kts | 210° |
| 2026-05-05 14:24 | 54.53115 | 12.76416 | 37936 ft | 408 kts | 210° |
| 2026-05-05 14:24 | 54.48061 | 12.72101 | 37947 ft | 407 kts | 210° |
| 2026-05-05 14:25 | 54.42988 | 12.67764 | 37949 ft | 407 kts | 210° |
| 2026-05-05 14:25 | 54.37916 | 12.63433 | 37948 ft | 407 kts | 210° |
| 2026-05-05 14:26 | 54.32871 | 12.59150 | 37934 ft | 406 kts | 210° |
| 2026-05-05 14:26 | 54.27806 | 12.54849 | 37943 ft | 406 kts | 210° |
| 2026-05-05 14:27 | 54.22745 | 12.50566 | 37952 ft | 405 kts | 210° |
| 2026-05-05 14:27 | 54.17686 | 12.46303 | 37950 ft | 405 kts | 210° |
| 2026-05-05 14:28 | 54.12620 | 12.42049 | 37955 ft | 405 kts | 210° |
| 2026-05-05 14:28 | 54.07561 | 12.37807 | 37939 ft | 405 kts | 210° |
| 2026-05-05 14:29 | 54.02507 | 12.33586 | 37950 ft | 404 kts | 210° |
| 2026-05-05 14:29 | 53.97458 | 12.29371 | 37955 ft | 404 kts | 210° |
| 2026-05-05 14:30 | 53.92440 | 12.25191 | 37956 ft | 404 kts | 210° |
| 2026-05-05 14:30 | 53.87390 | 12.21001 | 37931 ft | 404 kts | 210° |
| 2026-05-05 14:31 | 53.82343 | 12.16828 | 37935 ft | 403 kts | 210° |
| 2026-05-05 14:31 | 53.77295 | 12.12663 | 37949 ft | 402 kts | 210° |
| 2026-05-05 14:32 | 53.72266 | 12.08516 | 37936 ft | 402 kts | 210° |
| 2026-05-05 14:32 | 53.67262 | 12.04413 | 37938 ft | 402 kts | 210° |
| 2026-05-05 14:33 | 53.62219 | 12.00290 | 37930 ft | 402 kts | 209° |
| 2026-05-05 14:33 | 53.57189 | 11.96181 | 37934 ft | 402 kts | 209° |
| 2026-05-05 14:34 | 53.52154 | 11.92077 | 37925 ft | 402 kts | 209° |
| 2026-05-05 14:34 | 53.47144 | 11.88009 | 37934 ft | 401 kts | 209° |
| 2026-05-05 14:35 | 53.42108 | 11.83937 | 37921 ft | 402 kts | 209° |
| 2026-05-05 14:35 | 53.37057 | 11.79851 | 37895 ft | 403 kts | 209° |
| 2026-05-05 14:36 | 53.32032 | 11.75797 | 37891 ft | 403 kts | 209° |
| 2026-05-05 14:36 | 53.26964 | 11.71733 | 37890 ft | 404 kts | 209° |
| 2026-05-05 14:37 | 53.21895 | 11.67669 | 37894 ft | 404 kts | 209° |
| 2026-05-05 14:37 | 53.16820 | 11.63607 | 37884 ft | 405 kts | 209° |
| 2026-05-05 14:38 | 53.11734 | 11.59554 | 37887 ft | 405 kts | 209° |
| 2026-05-05 14:38 | 53.06636 | 11.55504 | 37893 ft | 406 kts | 209° |
| 2026-05-05 14:39 | 53.01528 | 11.51459 | 37895 ft | 406 kts | 209° |
| 2026-05-05 14:39 | 52.96455 | 11.47450 | 37897 ft | 406 kts | 208° |
| 2026-05-05 14:40 | 52.91344 | 11.43423 | 37900 ft | 407 kts | 209° |
| 2026-05-05 14:40 | 52.86230 | 11.39395 | 37896 ft | 407 kts | 208° |
| 2026-05-05 14:41 | 52.81109 | 11.35368 | 37903 ft | 407 kts | 208° |
| 2026-05-05 14:41 | 52.75988 | 11.31358 | 37904 ft | 407 kts | 208° |
| 2026-05-05 14:42 | 52.70857 | 11.27369 | 37881 ft | 407 kts | 208° |
| 2026-05-05 14:42 | 52.65740 | 11.23383 | 37908 ft | 407 kts | 208° |
| 2026-05-05 14:43 | 52.60655 | 11.19437 | 37914 ft | 406 kts | 208° |
| 2026-05-05 14:43 | 52.55543 | 11.15468 | 37911 ft | 406 kts | 208° |
| 2026-05-05 14:44 | 52.50431 | 11.11510 | 37909 ft | 406 kts | 208° |
| 2026-05-05 14:44 | 52.45332 | 11.07577 | 37916 ft | 404 kts | 208° |
| 2026-05-05 14:45 | 52.40243 | 11.03663 | 37915 ft | 403 kts | 208° |
| 2026-05-05 14:45 | 52.35201 | 10.99795 | 37914 ft | 402 kts | 208° |
| 2026-05-05 14:46 | 52.30135 | 10.95938 | 37914 ft | 401 kts | 208° |
| 2026-05-05 14:46 | 52.25079 | 10.92096 | 37892 ft | 400 kts | 208° |
| 2026-05-05 14:47 | 52.20043 | 10.88244 | 37917 ft | 399 kts | 208° |
| 2026-05-05 14:47 | 52.15014 | 10.84426 | 37913 ft | 398 kts | 208° |
| 2026-05-05 14:48 | 52.10003 | 10.80614 | 37910 ft | 397 kts | 208° |
| 2026-05-05 14:48 | 52.05019 | 10.76730 | 37904 ft | 397 kts | 208° |
| 2026-05-05 14:49 | 52.00083 | 10.72866 | 37889 ft | 396 kts | 208° |
| 2026-05-05 14:49 | 51.95117 | 10.69005 | 37890 ft | 395 kts | 208° |
| 2026-05-05 14:50 | 51.90147 | 10.65166 | 37890 ft | 394 kts | 208° |
| 2026-05-05 14:50 | 51.85200 | 10.61347 | 37889 ft | 394 kts | 208° |
| 2026-05-05 14:51 | 51.80281 | 10.57570 | 37868 ft | 394 kts | 207° |
| 2026-05-05 14:51 | 51.75337 | 10.53774 | 37875 ft | 393 kts | 207° |
| 2026-05-05 14:52 | 51.70394 | 10.49982 | 37873 ft | 393 kts | 207° |
| 2026-05-05 14:52 | 51.65456 | 10.46209 | 37875 ft | 393 kts | 207° |
| 2026-05-05 14:53 | 51.60513 | 10.42450 | 37865 ft | 393 kts | 207° |
| 2026-05-05 14:53 | 51.55569 | 10.38692 | 37855 ft | 392 kts | 207° |
| 2026-05-05 14:54 | 51.50639 | 10.34955 | 37852 ft | 392 kts | 207° |
| 2026-05-05 14:54 | 51.45738 | 10.31251 | 37853 ft | 392 kts | 207° |
| 2026-05-05 14:55 | 51.40804 | 10.27535 | 37851 ft | 392 kts | 207° |
| 2026-05-05 14:55 | 51.35869 | 10.23845 | 37838 ft | 392 kts | 204° |
| 2026-05-05 14:56 | 51.30553 | 10.21898 | 37837 ft | 397 kts | 184° |
| 2026-05-05 14:56 | 51.25025 | 10.21800 | 37828 ft | 398 kts | 184° |
| 2026-05-05 14:57 | 51.19443 | 10.21668 | 37469 ft | 408 kts | 184° |
| 2026-05-05 14:57 | 51.16589 | 10.21598 | 37051 ft | 409 kts | 184° |
| 2026-05-05 14:57 | 51.13746 | 10.21538 | 36644 ft | 407 kts | 184° |
| 2026-05-05 14:58 | 51.10924 | 10.21487 | 36216 ft | 404 kts | 183° |
| 2026-05-05 14:58 | 51.08134 | 10.21442 | 35799 ft | 400 kts | 183° |
| 2026-05-05 14:58 | 51.05362 | 10.21396 | 35389 ft | 396 kts | 183° |
| 2026-05-05 14:58 | 51.02621 | 10.21350 | 34986 ft | 392 kts | 183° |
| 2026-05-05 14:59 | 50.99944 | 10.21307 | 34596 ft | 388 kts | 183° |
| 2026-05-05 14:59 | 50.97220 | 10.21262 | 34198 ft | 385 kts | 183° |
| 2026-05-05 14:59 | 50.94587 | 10.21215 | 33815 ft | 381 kts | 183° |
| 2026-05-05 14:59 | 50.91947 | 10.21164 | 33373 ft | 378 kts | 183° |
| 2026-05-05 15:00 | 50.89320 | 10.21114 | 32939 ft | 376 kts | 183° |
| 2026-05-05 15:00 | 50.87594 | 10.21079 | 32644 ft | 374 kts | 184° |
| 2026-05-05 15:00 | 50.84212 | 10.20176 | 32078 ft | 367 kts | 199° |
| 2026-05-05 15:00 | 50.81887 | 10.18552 | 31658 ft | 364 kts | 209° |
| 2026-05-05 15:01 | 50.79792 | 10.16323 | 31248 ft | 363 kts | 218° |
| 2026-05-05 15:01 | 50.77959 | 10.13585 | 30845 ft | 363 kts | 226° |
| 2026-05-05 15:01 | 50.76913 | 10.11519 | 30578 ft | 364 kts | 232° |
| 2026-05-05 15:01 | 50.75627 | 10.08073 | 30182 ft | 365 kts | 240° |
| 2026-05-05 15:02 | 50.74490 | 10.04498 | 29783 ft | 364 kts | 240° |
| 2026-05-05 15:02 | 50.73354 | 10.00937 | 29322 ft | 362 kts | 240° |
| 2026-05-05 15:02 | 50.71855 | 9.96244 | 28726 ft | 360 kts | 240° |
| 2026-05-05 15:02 | 50.71097 | 9.93873 | 28435 ft | 358 kts | 240° |
| 2026-05-05 15:03 | 50.69974 | 9.90369 | 27987 ft | 357 kts | 240° |
| 2026-05-05 15:03 | 50.68856 | 9.86884 | 27545 ft | 355 kts | 240° |
| 2026-05-05 15:03 | 50.67741 | 9.83424 | 27155 ft | 353 kts | 240° |
| 2026-05-05 15:03 | 50.66623 | 9.79979 | 26736 ft | 352 kts | 240° |
| 2026-05-05 15:04 | 50.65524 | 9.76600 | 26336 ft | 350 kts | 240° |
| 2026-05-05 15:04 | 50.64386 | 9.73214 | 25930 ft | 348 kts | 236° |
| 2026-05-05 15:04 | 50.62967 | 9.70166 | 25535 ft | 344 kts | 226° |
| 2026-05-05 15:04 | 50.61240 | 9.67582 | 25143 ft | 341 kts | 217° |
| 2026-05-05 15:05 | 50.57115 | 9.64056 | 24372 ft | 338 kts | 201° |
| 2026-05-05 15:05 | 50.54922 | 9.62730 | 23998 ft | 337 kts | 201° |
| 2026-05-05 15:05 | 50.52735 | 9.61399 | 23626 ft | 336 kts | 201° |
| 2026-05-05 15:06 | 50.50657 | 9.59727 | 23228 ft | 335 kts | 213° |
| 2026-05-05 15:06 | 50.48845 | 9.57427 | 22798 ft | 335 kts | 224° |
| 2026-05-05 15:06 | 50.47360 | 9.54609 | 22360 ft | 336 kts | 234° |
| 2026-05-05 15:06 | 50.46262 | 9.51371 | 21927 ft | 337 kts | 245° |
| 2026-05-05 15:07 | 50.45548 | 9.47867 | 21518 ft | 337 kts | 251° |
| 2026-05-05 15:07 | 50.44888 | 9.44337 | 21103 ft | 336 kts | 251° |
| 2026-05-05 15:07 | 50.44227 | 9.40843 | 20700 ft | 334 kts | 251° |
| 2026-05-05 15:07 | 50.43574 | 9.37405 | 20301 ft | 332 kts | 251° |
| 2026-05-05 15:08 | 50.42916 | 9.33945 | 19905 ft | 330 kts | 251° |
| 2026-05-05 15:08 | 50.42266 | 9.30508 | 19519 ft | 328 kts | 251° |
| 2026-05-05 15:08 | 50.41625 | 9.27078 | 19115 ft | 327 kts | 251° |
| 2026-05-05 15:08 | 50.40976 | 9.23646 | 18673 ft | 327 kts | 250° |
| 2026-05-05 15:09 | 50.40248 | 9.20266 | 18230 ft | 327 kts | 248° |
| 2026-05-05 15:09 | 50.39453 | 9.16918 | 17734 ft | 327 kts | 247° |
| 2026-05-05 15:09 | 50.38639 | 9.13589 | 17231 ft | 328 kts | 247° |
| 2026-05-05 15:09 | 50.37824 | 9.10246 | 16739 ft | 329 kts | 247° |
| 2026-05-05 15:10 | 50.37017 | 9.06878 | 16237 ft | 331 kts | 248° |
| 2026-05-05 15:10 | 50.36218 | 9.03492 | 15761 ft | 332 kts | 248° |
| 2026-05-05 15:10 | 50.35423 | 9.00098 | 15286 ft | 332 kts | 248° |
| 2026-05-05 15:10 | 50.34628 | 8.96699 | 14818 ft | 332 kts | 248° |
| 2026-05-05 15:11 | 50.33835 | 8.93308 | 14367 ft | 332 kts | 248° |
| 2026-05-05 15:11 | 50.32981 | 8.89955 | 13898 ft | 330 kts | 239° |
| 2026-05-05 15:11 | 50.31539 | 8.87216 | 13440 ft | 326 kts | 217° |
| 2026-05-05 15:11 | 50.29568 | 8.85628 | 12939 ft | 323 kts | 194° |
| 2026-05-05 15:12 | 50.27352 | 8.85401 | 12441 ft | 319 kts | 171° |
| 2026-05-05 15:12 | 50.25323 | 8.86563 | 11962 ft | 306 kts | 148° |
| 2026-05-05 15:12 | 50.23609 | 8.88436 | 11474 ft | 295 kts | 144° |
| 2026-05-05 15:12 | 50.21987 | 8.90330 | 10993 ft | 288 kts | 144° |
| 2026-05-05 15:13 | 50.20395 | 8.92205 | 10531 ft | 285 kts | 144° |
| 2026-05-05 15:13 | 50.18830 | 8.94048 | 10071 ft | 278 kts | 144° |
| 2026-05-05 15:13 | 50.17305 | 8.95841 | 9604 ft | 271 kts | 144° |
| 2026-05-05 15:13 | 50.15805 | 8.97608 | 9105 ft | 269 kts | 144° |
| 2026-05-05 15:14 | 50.14323 | 8.99363 | 8608 ft | 266 kts | 144° |
| 2026-05-05 15:14 | 50.12846 | 9.01120 | 8126 ft | 268 kts | 144° |
| 2026-05-05 15:14 | 50.11366 | 9.02883 | 7639 ft | 265 kts | 144° |
| 2026-05-05 15:14 | 50.09915 | 9.04613 | 7166 ft | 262 kts | 144° |
| 2026-05-05 15:15 | 50.08476 | 9.06340 | 6704 ft | 261 kts | 144° |
| 2026-05-05 15:15 | 50.07057 | 9.08071 | 6242 ft | 263 kts | 141° |
| 2026-05-05 15:15 | 50.05956 | 9.10334 | 5755 ft | 268 kts | 114° |
| 2026-05-05 15:15 | 50.05671 | 9.13197 | 5271 ft | 273 kts | 85° |
| 2026-05-05 15:16 | 50.06311 | 9.15935 | 5001 ft | 268 kts | 55° |
| 2026-05-05 15:16 | 50.07710 | 9.17796 | 4992 ft | 267 kts | 24° |
| 2026-05-05 15:16 | 50.09507 | 9.18386 | 4994 ft | 265 kts | 355° |
| 2026-05-05 15:16 | 50.11247 | 9.17566 | 5005 ft | 262 kts | 326° |
| 2026-05-05 15:17 | 50.12490 | 9.15563 | 4997 ft | 258 kts | 295° |
| 2026-05-05 15:17 | 50.13142 | 9.12970 | 4998 ft | 257 kts | 285° |
| 2026-05-05 15:17 | 50.13654 | 9.10294 | 4999 ft | 258 kts | 284° |
| 2026-05-05 15:17 | 50.14150 | 9.07597 | 4997 ft | 259 kts | 284° |
| 2026-05-05 15:18 | 50.14635 | 9.04929 | 4999 ft | 258 kts | 284° |
| 2026-05-05 15:18 | 50.15126 | 9.02229 | 4998 ft | 258 kts | 283° |
| 2026-05-05 15:18 | 50.15320 | 8.99483 | 5000 ft | 254 kts | 262° |
| 2026-05-05 15:18 | 50.14863 | 8.96840 | 4999 ft | 253 kts | 248° |
| 2026-05-05 15:19 | 50.14256 | 8.94270 | 5004 ft | 252 kts | 248° |
| 2026-05-05 15:19 | 50.13652 | 8.91700 | 5002 ft | 252 kts | 249° |
| 2026-05-05 15:19 | 50.13049 | 8.89131 | 5001 ft | 252 kts | 248° |
| 2026-05-05 15:19 | 50.12446 | 8.86563 | 4980 ft | 253 kts | 248° |
| 2026-05-05 15:20 | 50.11834 | 8.83963 | 4686 ft | 261 kts | 248° |
| 2026-05-05 15:20 | 50.11197 | 8.81264 | 4352 ft | 267 kts | 248° |
| 2026-05-05 15:20 | 50.10553 | 8.78529 | 3958 ft | 268 kts | 249° |
| 2026-05-05 15:20 | 50.09921 | 8.75851 | 3586 ft | 256 kts | 248° |
| 2026-05-05 15:21 | 50.09325 | 8.73326 | 3239 ft | 240 kts | 248° |
| 2026-05-05 15:21 | 50.08765 | 8.70963 | 2912 ft | 225 kts | 249° |
| 2026-05-05 15:21 | 50.08251 | 8.68795 | 2602 ft | 203 kts | 249° |
| 2026-05-05 15:21 | 50.07786 | 8.66832 | 2345 ft | 182 kts | 249° |
| 2026-05-05 15:22 | 50.07373 | 8.65095 | 2106 ft | 161 kts | 249° |
| 2026-05-05 15:22 | 50.06999 | 8.63519 | 1866 ft | 149 kts | 248° |
| 2026-05-05 15:22 | 50.06650 | 8.62053 | 1656 ft | 141 kts | 248° |
| 2026-05-05 15:22 | 50.06315 | 8.60648 | 1462 ft | 138 kts | 247° |
| 2026-05-05 15:23 | 50.05969 | 8.59198 | 1282 ft | 149 kts | 249° |
| 2026-05-05 15:23 | 50.05604 | 8.57677 | 1004 ft | 151 kts | 249° |
| 2026-05-05 15:23 | 50.05247 | 8.56171 | 765 ft | 149 kts | 249° |
| 2026-05-05 15:23 | 50.04899 | 8.54667 | 575 ft | 144 kts | 249° |
| 2026-05-05 15:24 | 50.04550 | 8.53233 | 392 ft | 138 kts | 249° |
| 2026-05-05 15:24 | 50.04230 | 8.51916 | 337 ft | 119 kts | 249° |
| 2026-05-05 15:24 | 50.04037 | 8.51099 | 326 ft | 37 kts | 250° |
| 2026-05-05 15:24 | 50.03977 | 8.50860 | 323 ft | 26 kts | 248° |
| 2026-05-05 15:25 | 50.03909 | 8.50561 | 323 ft | 32 kts | 247° |
| 2026-05-05 15:25 | 50.03773 | 8.50292 | 319 ft | 32 kts | 220° |
| 2026-05-05 15:25 | 50.03628 | 8.50225 | 324 ft | 17 kts | 125° |
| 2026-05-05 15:25 | 50.03634 | 8.50311 | 325 ft | 6 kts | 68° |
| 2026-05-05 15:26 | 50.03646 | 8.50356 | 324 ft | 3 kts | 69° |
| 2026-05-05 15:26 | 50.03658 | 8.50404 | 325 ft | 11 kts | 69° |
| 2026-05-05 15:26 | 50.03706 | 8.50607 | 329 ft | 28 kts | 71° |
| 2026-05-05 15:26 | 50.03775 | 8.50900 | 333 ft | 29 kts | 69° |
| 2026-05-05 15:27 | 50.03849 | 8.51200 | 336 ft | 31 kts | 69° |
| 2026-05-05 15:27 | 50.03927 | 8.51524 | 332 ft | 33 kts | 70° |
| 2026-05-05 15:27 | 50.04007 | 8.51868 | 337 ft | 34 kts | 70° |
| 2026-05-05 15:27 | 50.04091 | 8.52220 | 346 ft | 35 kts | 69° |
| 2026-05-05 15:28 | 50.04176 | 8.52574 | 351 ft | 35 kts | 70° |
| 2026-05-05 15:28 | 50.04261 | 8.52931 | 359 ft | 35 kts | 70° |
| 2026-05-05 15:28 | 50.04346 | 8.53285 | 368 ft | 33 kts | 69° |
| 2026-05-05 15:28 | 50.04401 | 8.53619 | 375 ft | 32 kts | 84° |
| 2026-05-05 15:29 | 50.04426 | 8.53974 | 375 ft | 34 kts | 84° |
| 2026-05-05 15:29 | 50.04450 | 8.54353 | 373 ft | 37 kts | 84° |
| 2026-05-05 15:29 | 50.04370 | 8.54715 | 361 ft | 26 kts | 142° |
| 2026-05-05 15:29 | 50.04251 | 8.54806 | 359 ft | 20 kts | 160° |
| 2026-05-05 15:30 | 50.04105 | 8.54889 | 350 ft | 21 kts | 160° |
| 2026-05-05 15:30 | 50.04074 | 8.54907 | 356 ft | 0 kts | 160° |
| 2026-05-05 15:30 | 50.04071 | 8.54909 | 356 ft | 2 kts | 159° |
| 2026-05-05 15:30 | 50.04027 | 8.54934 | 355 ft | 11 kts | 160° |
| 2026-05-05 15:31 | 50.03962 | 8.54972 | 354 ft | 10 kts | 159° |
| 2026-05-05 15:31 | 50.03888 | 8.55018 | 355 ft | 13 kts | 156° |
| 2026-05-05 15:31 | 50.03860 | 8.55164 | 349 ft | 20 kts | 69° |
| 2026-05-05 15:31 | 50.03913 | 8.55383 | 357 ft | 21 kts | 70° |
| 2026-05-05 15:32 | 50.03964 | 8.55594 | 354 ft | 20 kts | 69° |
| 2026-05-05 15:32 | 50.04010 | 8.55792 | 359 ft | 18 kts | 70° |
| 2026-05-05 15:32 | 50.04052 | 8.55968 | 354 ft | 15 kts | 69° |
| 2026-05-05 15:32 | 50.04083 | 8.56093 | 361 ft | 12 kts | 70° |
| 2026-05-05 15:33 | 50.04122 | 8.56264 | 358 ft | 21 kts | 71° |
| 2026-05-05 15:33 | 50.04179 | 8.56500 | 359 ft | 24 kts | 69° |
| 2026-05-05 15:33 | 50.04217 | 8.56654 | 359 ft | 0 kts | 69° |
| 2026-05-05 15:34 | 50.04218 | 8.56657 | 364 ft | 3 kts | 69° |
| 2026-05-05 15:34 | 50.04250 | 8.56770 | 360 ft | 18 kts | 53° |
| 2026-05-05 15:34 | 50.04356 | 8.56831 | 360 ft | 16 kts | 10° |
| 2026-05-05 15:35 | 50.04462 | 8.56859 | 359 ft | 15 kts | 9° |
| 2026-05-05 15:35 | 50.04528 | 8.56800 | 361 ft | 13 kts | 288° |
| 2026-05-05 15:35 | 50.04543 | 8.56744 | 363 ft | 0 kts | 294° |
| 2026-05-05 15:35 | 50.04545 | 8.56740 | 362 ft | 0 kts | 294° |